Time;durP1;ratioP1;P1;durP2;ratioP2;P2;SDS_P1;SDS_P2;PMS_P1;PMS_P2;Temp;Humidity;BMP_temperature;BMP_pressure;BME280_temperature;BME280_humidity;BME280_pressure;Samples;Min_cycle;Max_cycle;Signal;HPM_P1;HPM_P2
2022/04/17 00:00:05;;;;;;;13.43;4.72;;;;;;;;;;5006286;28;20048;-58
2022/04/17 00:02:31;;;;;;;8.20;4.40;;;;;;;;;;5007745;28;20437;-58
2022/04/17 00:04:57;;;;;;;11.43;5.03;;;;;;;;;;5008001;28;20444;-58
2022/04/17 00:07:23;;;;;;;6.53;4.35;;;;;;;;;;5008238;28;20172;-58
2022/04/17 00:09:50;;;;;;;6.82;4.32;;;;;;;;;;5008006;28;20046;-58
2022/04/17 00:12:16;;;;;;;8.65;4.47;;;;;;;;;;4991024;28;20058;-57
2022/04/17 00:14:43;;;;;;;10.38;5.07;;;;;;;;;;5007346;28;20046;-58
2022/04/17 00:17:11;;;;;;;9.32;4.70;;;;;;;;;;5007912;28;20418;-58
2022/04/17 00:19:38;;;;;;;7.00;4.70;;;;;;;;;;5007550;28;20050;-59
2022/04/17 00:22:04;;;;;;;9.10;5.18;;;;;;;;;;5008030;28;20502;-58
2022/04/17 00:24:30;;;;;;;9.68;4.68;;;;;;;;;;5007813;28;20412;-58
2022/04/17 00:26:59;;;;;;;10.15;4.90;;;;;;;;;;5008210;28;20050;-58
2022/04/17 00:29:26;;;;;;;8.57;4.75;;;;;;;;;;5007942;28;20042;-58
2022/04/17 00:31:52;;;;;;;8.65;4.53;;;;;;;;;;5007896;28;20140;-58
2022/04/17 00:34:19;;;;;;;8.25;4.85;;;;;;;;;;5007606;28;20462;-58
2022/04/17 00:36:45;;;;;;;12.38;5.35;;;;;;;;;;5006831;28;20050;-58
2022/04/17 00:39:13;;;;;;;11.10;4.80;;;;;;;;;;5007699;28;20041;-58
2022/04/17 00:41:39;;;;;;;12.23;5.05;;;;;;;;;;4988634;28;20046;-58
2022/04/17 00:44:11;;;;;;;11.32;6.00;;;;;;;;;;5007644;28;20124;-58
2022/04/17 00:46:37;;;;;;;8.98;5.20;;;;;;;;;;5007275;28;20532;-58
2022/04/17 00:49:03;;;;;;;9.80;5.63;;;;;;;;;;5007444;28;20695;-58
2022/04/17 00:51:30;;;;;;;7.70;4.85;;;;;;;;;;5007124;28;20085;-58
2022/04/17 00:53:57;;;;;;;12.82;5.07;;;;;;;;;;5007504;28;20046;-58
2022/04/17 00:56:25;;;;;;;9.10;5.05;;;;;;;;;;5006302;28;20042;-58
2022/04/17 00:58:52;;;;;;;7.90;5.20;;;;;;;;;;4989601;28;20054;-58
2022/04/17 01:01:18;;;;;;;10.95;5.35;;;;;;;;;;5006889;28;20439;-58
2022/04/17 01:03:44;;;;;;;9.75;5.28;;;;;;;;;;5007098;28;20064;-58
2022/04/17 01:06:11;;;;;;;11.25;5.75;;;;;;;;;;5006167;28;20046;-58
2022/04/17 01:08:41;;;;;;;13.43;6.45;;;;;;;;;;5005978;28;20169;-58
2022/04/17 01:11:08;;;;;;;7.97;5.07;;;;;;;;;;5006749;28;20577;-58
2022/04/17 01:13:36;;;;;;;9.35;5.93;;;;;;;;;;5006836;28;20180;-58
2022/04/17 01:16:05;;;;;;;10.50;5.82;;;;;;;;;;5007246;28;20045;-58
2022/04/17 01:18:31;;;;;;;;;;;;;;;;;;5007135;28;20125;-57
2022/04/17 01:20:57;;;;;;;10.48;6.50;;;;;;;;;;5005729;28;20012;-58
2022/04/17 01:28:54;;;;;;;8.50;5.47;;;;;;;;;;5006053;28;20570;-58
2022/04/17 01:31:27;;;;;;;10.75;5.80;;;;;;;;;;5006677;28;20431;-58
2022/04/17 01:33:53;;;;;;;11.45;6.30;;;;;;;;;;5006275;28;20085;-58
2022/04/17 01:36:19;;;;;;;9.80;5.85;;;;;;;;;;4988214;28;20132;-58
2022/04/17 01:38:45;;;;;;;12.05;5.90;;;;;;;;;;5006426;28;20119;-58
2022/04/17 01:41:12;;;;;;;9.25;5.72;;;;;;;;;;4995382;28;20057;-58
2022/04/17 01:43:38;;;;;;;8.40;5.70;;;;;;;;;;4986649;28;20047;-58
2022/04/17 01:46:04;;;;;;;10.35;6.50;;;;;;;;;;4986710;28;20093;-58
2022/04/17 01:48:30;;;;;;;11.80;6.05;;;;;;;;;;4986899;28;20125;-58
2022/04/17 01:50:57;;;;;;;14.88;6.20;;;;;;;;;;4986515;28;20046;-58
2022/04/17 01:53:23;;;;;;;9.10;6.13;;;;;;;;;;4986583;28;20050;-58
2022/04/17 01:55:49;;;;;;;10.30;6.13;;;;;;;;;;4985902;28;20404;-58
2022/04/17 01:58:15;;;;;;;9.57;6.25;;;;;;;;;;4987002;28;20050;-58
2022/04/17 02:00:41;;;;;;;12.13;7.00;;;;;;;;;;4970690;28;20126;-57
2022/04/17 02:03:07;;;;;;;10.25;6.47;;;;;;;;;;5006448;28;20046;-58
2022/04/17 02:05:34;;;;;;;10.18;6.82;;;;;;;;;;5004954;28;20698;-58
2022/04/17 02:08:00;;;;;;;13.35;6.53;;;;;;;;;;5006044;28;20742;-58
2022/04/17 02:10:26;;;;;;;12.07;6.72;;;;;;;;;;5006234;28;20446;-58
2022/04/17 02:12:52;;;;;;;10.57;6.68;;;;;;;;;;5005779;28;20054;-58
2022/04/17 02:15:18;;;;;;;13.68;6.63;;;;;;;;;;5005888;28;20376;-57
2022/04/17 02:17:45;;;;;;;13.00;6.18;;;;;;;;;;5005667;28;20045;-58
2022/04/17 02:20:11;;;;;;;9.25;6.03;;;;;;;;;;5005105;28;20042;-58
2022/04/17 02:22:37;;;;;;;12.40;6.85;;;;;;;;;;5004759;28;20054;-58
2022/04/17 02:25:04;;;;;;;12.25;6.53;;;;;;;;;;4987940;28;20045;-58
2022/04/17 02:27:30;;;;;;;10.38;6.38;;;;;;;;;;5005539;28;20076;-58
2022/04/17 02:29:56;;;;;;;12.23;6.97;;;;;;;;;;5006064;28;20045;-58
2022/04/17 02:32:22;;;;;;;10.07;6.90;;;;;;;;;;5005695;28;20050;-57
2022/04/17 02:34:48;;;;;;;10.48;7.03;;;;;;;;;;5005218;28;20049;-58
2022/04/17 02:37:15;;;;;;;10.93;6.72;;;;;;;;;;5005253;28;20405;-58
2022/04/17 02:39:41;;;;;;;13.82;7.30;;;;;;;;;;5005052;28;20111;-58
2022/04/17 02:42:07;;;;;;;11.05;6.68;;;;;;;;;;5005605;28;20045;-57
2022/04/17 02:44:33;;;;;;;13.52;7.53;;;;;;;;;;5004933;28;20046;-58
2022/04/17 02:49:44;;;;;;;14.73;6.95;;;;;;;;;;5004239;28;20883;-58
2022/04/17 02:52:11;;;;;;;12.82;6.63;;;;;;;;;;5005074;28;20049;-57
2022/04/17 02:54:38;;;;;;;12.85;6.93;;;;;;;;;;5005064;28;20092;-58
2022/04/17 02:57:05;;;;;;;12.38;6.93;;;;;;;;;;5004993;28;20141;-58
2022/04/17 02:59:31;;;;;;;12.57;6.75;;;;;;;;;;5005140;28;20041;-58
2022/04/17 03:07:28;;;;;;;11.95;7.18;;;;;;;;;;5005317;28;20470;-58
2022/04/17 03:09:55;;;;;;;11.45;7.40;;;;;;;;;;5004589;28;20048;-58
2022/04/17 03:12:21;;;;;;;13.52;7.70;;;;;;;;;;5005287;28;20046;-58
2022/04/17 03:14:47;;;;;;;15.55;8.38;;;;;;;;;;5004461;28;20046;-58
2022/04/17 03:17:14;;;;;;;12.50;7.32;;;;;;;;;;5005089;28;20045;-58
2022/04/17 03:19:40;;;;;;;14.68;7.13;;;;;;;;;;5004222;28;20050;-58
2022/04/17 03:22:07;;;;;;;15.68;8.18;;;;;;;;;;5004774;28;20045;-58
2022/04/17 03:24:33;;;;;;;11.65;7.30;;;;;;;;;;5004495;28;20712;-58
2022/04/17 03:26:59;;;;;;;14.98;7.65;;;;;;;;;;5005281;28;20046;-58
2022/04/17 03:29:25;;;;;;;13.25;7.22;;;;;;;;;;5005291;28;20099;-58
2022/04/17 03:31:51;;;;;;;13.77;7.35;;;;;;;;;;5004473;28;20041;-58
2022/04/17 03:34:18;;;;;;;12.38;7.05;;;;;;;;;;5004964;28;20041;-58
2022/04/17 03:36:46;;;;;;;10.55;7.15;;;;;;;;;;5007496;28;20085;-58
2022/04/17 03:39:12;;;;;;;13.27;7.47;;;;;;;;;;5008651;28;20061;-58
2022/04/17 03:41:38;;;;;;;14.40;7.53;;;;;;;;;;5008188;28;20048;-58
2022/04/17 03:44:05;;;;;;;10.93;7.50;;;;;;;;;;5008665;28;20049;-58
2022/04/17 03:46:31;;;;;;;13.85;7.35;;;;;;;;;;5008320;28;20599;-58
2022/04/17 03:48:57;;;;;;;12.75;7.78;;;;;;;;;;5008542;28;20042;-58
2022/04/17 03:51:24;;;;;;;14.70;7.97;;;;;;;;;;5006835;28;20077;-58
2022/04/17 03:53:50;;;;;;;12.88;7.78;;;;;;;;;;5007909;28;20868;-58
2022/04/17 03:56:16;;;;;;;15.95;7.80;;;;;;;;;;5008338;28;20049;-58
2022/04/17 03:58:42;;;;;;;13.25;7.13;;;;;;;;;;5008051;28;20054;-58
2022/04/17 04:01:08;;;;;;;13.38;7.68;;;;;;;;;;5007779;28;20054;-58
2022/04/17 04:03:35;;;;;;;13.00;7.47;;;;;;;;;;5007777;28;20092;-58
2022/04/17 04:06:01;;;;;;;11.68;7.30;;;;;;;;;;4989390;28;20480;-58
2022/04/17 04:08:27;;;;;;;14.40;8.45;;;;;;;;;;4990698;28;20057;-57
2022/04/17 04:10:53;;;;;;;12.23;7.53;;;;;;;;;;5007910;28;20049;-58
2022/04/17 04:13:19;;;;;;;13.45;7.90;;;;;;;;;;5008047;28;20104;-58
2022/04/17 04:15:45;;;;;;;13.18;7.70;;;;;;;;;;5007943;28;20042;-57
2022/04/17 04:18:11;;;;;;;16.92;7.88;;;;;;;;;;5007733;28;20050;-58
2022/04/17 04:20:37;;;;;;;15.60;7.50;;;;;;;;;;5006517;28;20093;-58
2022/04/17 04:23:04;;;;;;;14.68;7.72;;;;;;;;;;5007852;28;20077;-58
2022/04/17 04:25:30;;;;;;;15.45;8.43;;;;;;;;;;5007905;28;20357;-58
2022/04/17 04:30:40;;;;;;;12.00;7.28;;;;;;;;;;5007070;28;20068;-57
2022/04/17 04:33:07;;;;;;;14.90;7.20;;;;;;;;;;5007763;28;20077;-58
2022/04/17 04:35:33;;;;;;;13.38;7.38;;;;;;;;;;5006665;28;20073;-58
2022/04/17 04:38:01;;;;;;;11.82;7.60;;;;;;;;;;5007883;28;20056;-58
2022/04/17 04:40:29;;;;;;;12.98;8.07;;;;;;;;;;5007910;28;20075;-58
2022/04/17 04:42:57;;;;;;;15.18;7.45;;;;;;;;;;5007730;28;20088;-58
2022/04/17 04:48:08;;;;;;;13.82;8.25;;;;;;;;;;5007331;28;20044;-58
2022/04/17 04:50:34;;;;;;;14.32;8.10;;;;;;;;;;5006417;28;20536;-58
2022/04/17 04:53:01;;;;;;;15.98;7.82;;;;;;;;;;5007053;28;20045;-58
2022/04/17 04:55:28;;;;;;;22.42;7.90;;;;;;;;;;5006938;28;20042;-58
2022/04/17 04:57:54;;;;;;;12.18;8.05;;;;;;;;;;5006940;28;20049;-58
2022/04/17 05:00:21;;;;;;;16.52;8.15;;;;;;;;;;5007114;28;20049;-58
2022/04/17 05:02:47;;;;;;;13.77;7.78;;;;;;;;;;5006528;28;20119;-58
2022/04/17 05:05:14;;;;;;;13.27;7.60;;;;;;;;;;5006497;28;20505;-58
2022/04/17 05:07:40;;;;;;;13.70;8.20;;;;;;;;;;5006786;28;20054;-58
2022/04/17 05:10:07;;;;;;;13.73;7.55;;;;;;;;;;5006555;28;20145;-58
2022/04/17 05:12:33;;;;;;;13.43;7.53;;;;;;;;;;5006508;28;20096;-58
2022/04/17 05:15:00;;;;;;;12.55;7.82;;;;;;;;;;5007086;28;20042;-58
2022/04/17 05:17:27;;;;;;;16.35;7.57;;;;;;;;;;5006865;28;20042;-58
2022/04/17 05:19:53;;;;;;;14.85;7.80;;;;;;;;;;5005788;28;20056;-58
2022/04/17 05:22:20;;;;;;;15.25;8.00;;;;;;;;;;5006237;28;20157;-58
2022/04/17 05:24:47;;;;;;;18.42;7.97;;;;;;;;;;5006312;28;20543;-58
2022/04/17 05:27:13;;;;;;;17.00;7.30;;;;;;;;;;5006327;28;20129;-58
2022/04/17 05:29:40;;;;;;;13.38;8.07;;;;;;;;;;5006165;28;20703;-58
2022/04/17 05:32:06;;;;;;;15.30;7.78;;;;;;;;;;5006582;28;20099;-58
2022/04/17 05:34:35;;;;;;;12.40;7.93;;;;;;;;;;5004604;28;20096;-58
2022/04/17 05:37:02;;;;;;;11.15;7.40;;;;;;;;;;5005483;28;20088;-59
2022/04/17 05:39:28;;;;;;;13.45;7.43;;;;;;;;;;5003462;28;20554;-58
2022/04/17 05:41:54;;;;;;;16.55;7.95;;;;;;;;;;5005628;28;20089;-59
2022/04/17 05:44:20;;;;;;;15.77;8.10;;;;;;;;;;5005169;28;20475;-58
2022/04/17 05:46:46;;;;;;;13.98;7.68;;;;;;;;;;5005728;28;20435;-59
2022/04/17 05:49:12;;;;;;;14.98;7.90;;;;;;;;;;5004790;28;20049;-58
2022/04/17 05:51:39;;;;;;;14.52;8.40;;;;;;;;;;5005252;28;20072;-58
2022/04/17 05:54:06;;;;;;;13.18;7.88;;;;;;;;;;5005253;28;20120;-58
2022/04/17 05:56:32;;;;;;;13.57;7.90;;;;;;;;;;5004657;28;20618;-58
2022/04/17 05:59:00;;;;;;;13.80;8.27;;;;;;;;;;4985661;28;20053;-58
2022/04/17 06:01:26;;;;;;;15.35;8.23;;;;;;;;;;5005609;28;20049;-58
2022/04/17 06:03:52;;;;;;;14.75;8.63;;;;;;;;;;5003791;28;20841;-58
2022/04/17 06:06:19;;;;;;;15.05;8.13;;;;;;;;;;5005250;28;20523;-58
2022/04/17 06:08:48;;;;;;;13.38;8.20;;;;;;;;;;5003314;28;20041;-58
2022/04/17 06:11:14;;;;;;;15.40;8.32;;;;;;;;;;5005634;28;20038;-58
2022/04/17 06:13:41;;;;;;;17.17;8.70;;;;;;;;;;5005441;28;20045;-59
2022/04/17 06:16:07;;;;;;;14.93;8.32;;;;;;;;;;5005580;28;20045;-58
2022/04/17 06:18:33;;;;;;;13.52;8.30;;;;;;;;;;5004993;28;20098;-59
2022/04/17 06:21:00;;;;;;;13.32;7.75;;;;;;;;;;5004071;28;20567;-59
2022/04/17 06:23:27;;;;;;;17.55;8.13;;;;;;;;;;5005393;28;20045;-59
2022/04/17 06:25:54;;;;;;;14.75;8.23;;;;;;;;;;5005201;28;20096;-59
2022/04/17 06:28:20;;;;;;;12.93;8.27;;;;;;;;;;5005741;28;20119;-59
2022/04/17 06:30:46;;;;;;;18.30;8.52;;;;;;;;;;5005975;28;20041;-59
2022/04/17 06:33:12;;;;;;;15.10;8.18;;;;;;;;;;5006107;28;20392;-59
2022/04/17 06:35:38;;;;;;;14.35;8.45;;;;;;;;;;5002940;28;20049;-59
2022/04/17 06:38:06;;;;;;;14.85;8.70;;;;;;;;;;5004533;28;20054;-59
2022/04/17 06:40:33;;;;;;;23.53;8.63;;;;;;;;;;5002157;28;20060;-59
2022/04/17 06:43:01;;;;;;;19.58;8.82;;;;;;;;;;5005570;28;20046;-58
2022/04/17 06:45:28;;;;;;;16.08;9.05;;;;;;;;;;5006472;28;20510;-58
2022/04/17 06:47:55;;;;;;;16.55;8.43;;;;;;;;;;5005274;28;20054;-58
2022/04/17 06:50:22;;;;;;;16.73;8.77;;;;;;;;;;5004940;28;20054;-58
2022/04/17 06:52:49;;;;;;;13.00;8.55;;;;;;;;;;5005258;28;20680;-58
2022/04/17 06:55:15;;;;;;;13.02;7.82;;;;;;;;;;5005646;28;20492;-59
2022/04/17 06:57:48;;;;;;;15.80;8.88;;;;;;;;;;5004878;28;20112;-58
2022/04/17 07:00:15;;;;;;;14.20;9.00;;;;;;;;;;5002173;28;20157;-58
2022/04/17 07:02:42;;;;;;;14.95;8.07;;;;;;;;;;4967302;28;20062;-58
2022/04/17 07:05:09;;;;;;;16.75;7.75;;;;;;;;;;4964741;28;20122;-59
2022/04/17 07:07:35;;;;;;;13.23;8.10;;;;;;;;;;4967714;28;20047;-57
2022/04/17 07:10:01;;;;;;;12.00;8.50;;;;;;;;;;4966181;28;20519;-59
2022/04/17 07:12:29;;;;;;;13.35;8.32;;;;;;;;;;4968775;28;20043;-58
2022/04/17 07:14:55;;;;;;;14.60;8.55;;;;;;;;;;4972943;28;20053;-58
2022/04/17 07:17:23;;;;;;;13.25;8.23;;;;;;;;;;4977455;28;20472;-58
2022/04/17 07:19:49;;;;;;;13.93;8.20;;;;;;;;;;4973098;28;20563;-58
2022/04/17 07:22:17;;;;;;;13.98;7.70;;;;;;;;;;4976625;28;20061;-58
2022/04/17 07:24:45;;;;;;;12.55;7.60;;;;;;;;;;4977701;28;20042;-58
2022/04/17 07:27:16;;;;;;;15.65;7.97;;;;;;;;;;4968964;28;20126;-59
2022/04/17 07:29:43;;;;;;;11.73;6.93;;;;;;;;;;4970234;28;20051;-58
2022/04/17 07:32:09;;;;;;;13.57;7.72;;;;;;;;;;4970689;28;20059;-59
2022/04/17 07:34:35;;;;;;;13.55;7.57;;;;;;;;;;4977959;28;20039;-59
2022/04/17 07:37:01;;;;;;;12.10;7.68;;;;;;;;;;4976128;28;20416;-59
2022/04/17 07:39:27;;;;;;;14.70;7.72;;;;;;;;;;4965547;28;20038;-58
2022/04/17 07:41:54;;;;;;;15.05;7.60;;;;;;;;;;4970485;28;20061;-59
2022/04/17 07:44:20;;;;;;;17.00;7.82;;;;;;;;;;4965285;28;20047;-58
2022/04/17 07:46:46;;;;;;;10.57;6.85;;;;;;;;;;4971410;28;20058;-58
2022/04/17 07:49:12;;;;;;;11.73;7.65;;;;;;;;;;4978770;28;20060;-59
2022/04/17 07:51:38;;;;;;;14.05;7.30;;;;;;;;;;4982653;28;20054;-59
2022/04/17 07:54:05;;;;;;;12.05;7.07;;;;;;;;;;4983257;28;20137;-58
2022/04/17 07:56:31;;;;;;;12.50;6.90;;;;;;;;;;4983734;28;20480;-59
2022/04/17 07:58:57;;;;;;;11.68;6.57;;;;;;;;;;4984806;28;20044;-58
2022/04/17 08:01:23;;;;;;;11.05;6.80;;;;;;;;;;4989571;28;20046;-59
2022/04/17 08:03:49;;;;;;;11.65;6.85;;;;;;;;;;5001814;28;20124;-59
2022/04/17 08:06:20;;;;;;;12.52;6.63;;;;;;;;;;4987796;28;20046;-58
2022/04/17 08:08:46;;;;;;;11.50;5.93;;;;;;;;;;4997979;28;20053;-58
2022/04/17 08:11:13;;;;;;;9.40;5.72;;;;;;;;;;5001648;28;20037;-59
2022/04/17 08:13:40;;;;;;;10.60;6.28;;;;;;;;;;5002321;28;20068;-59
2022/04/17 08:16:08;;;;;;;11.60;6.70;;;;;;;;;;5000615;28;20586;-58
2022/04/17 08:18:35;;;;;;;7.07;5.15;;;;;;;;;;5001644;28;20100;-59
2022/04/17 08:21:01;;;;;;;11.35;5.95;;;;;;;;;;5002937;28;20038;-59
2022/04/17 08:23:28;;;;;;;11.75;6.70;;;;;;;;;;5005570;28;20038;-59
2022/04/17 08:25:54;;;;;;;9.40;5.90;;;;;;;;;;5000025;28;20508;-59
2022/04/17 08:28:20;;;;;;;11.32;5.95;;;;;;;;;;4998029;28;20046;-58
2022/04/17 08:30:46;;;;;;;13.43;6.05;;;;;;;;;;5004193;28;20108;-59
2022/04/17 08:33:14;;;;;;;9.25;5.95;;;;;;;;;;5004050;28;20050;-58
2022/04/17 08:35:40;;;;;;;13.60;5.70;;;;;;;;;;5002652;28;20042;-59
2022/04/17 08:38:07;;;;;;;9.02;5.68;;;;;;;;;;5003102;28;20045;-59
2022/04/17 08:40:33;;;;;;;9.70;5.72;;;;;;;;;;5005505;28;20042;-59
2022/04/17 08:43:00;;;;;;;13.00;5.30;;;;;;;;;;5006916;28;20058;-58
2022/04/17 08:45:26;;;;;;;9.32;5.35;;;;;;;;;;5006771;28;20049;-58
2022/04/17 08:47:54;;;;;;;10.90;5.53;;;;;;;;;;5007023;28;20068;-58
2022/04/17 08:50:21;;;;;;;8.70;5.07;;;;;;;;;;5003316;28;20053;-59
2022/04/17 08:52:48;;;;;;;8.00;5.28;;;;;;;;;;5006211;28;20049;-59
2022/04/17 08:55:15;;;;;;;11.23;5.00;;;;;;;;;;5006853;28;20711;-59
2022/04/17 08:57:41;;;;;;;8.77;4.90;;;;;;;;;;4989077;28;20377;-58
2022/04/17 09:00:10;;;;;;;10.13;5.10;;;;;;;;;;5006906;28;20065;-59
2022/04/17 09:02:36;;;;;;;7.65;4.28;;;;;;;;;;5006749;28;20504;-59
2022/04/17 09:05:08;;;;;;;9.05;4.78;;;;;;;;;;5003945;28;20046;-59
2022/04/17 09:07:53;;;;;;;9.25;5.07;;;;;;;;;;4997140;28;20112;-59
2022/04/17 09:10:24;;;;;;;9.23;4.90;;;;;;;;;;4988360;28;20615;-59
2022/04/17 09:12:53;;;;;;;9.63;4.72;;;;;;;;;;5005532;28;20046;-58
2022/04/17 09:15:19;;;;;;;;;;;;;;;;;;5004094;28;20046;-58
2022/04/17 09:17:45;;;;;;;9.15;4.75;;;;;;;;;;5006050;28;19928;-59
2022/04/17 09:20:19;;;;;;;8.10;4.82;;;;;;;;;;5005329;28;20542;-59
2022/04/17 09:22:46;;;;;;;8.52;5.03;;;;;;;;;;5003500;28;20060;-58
2022/04/17 09:25:13;;;;;;;6.78;4.43;;;;;;;;;;5004164;28;20491;-58
2022/04/17 09:27:42;;;;;;;11.93;5.43;;;;;;;;;;5004045;28;20022;-60
2022/04/17 09:30:28;;;;;;;7.45;4.70;;;;;;;;;;5003639;28;20392;-57
2022/04/17 09:32:55;;;;;;;10.30;4.57;;;;;;;;;;5002619;28;20056;-58
2022/04/17 09:35:23;;;;;;;8.05;4.95;;;;;;;;;;4985245;28;20455;-58
2022/04/17 09:37:50;;;;;;;8.95;4.82;;;;;;;;;;5003123;28;20160;-58
2022/04/17 09:40:20;;;;;;;11.65;5.05;;;;;;;;;;5003455;28;20061;-58
2022/04/17 09:42:47;;;;;;;9.13;4.78;;;;;;;;;;5003512;28;20049;-58
2022/04/17 09:45:14;;;;;;;9.00;5.45;;;;;;;;;;5003302;28;20180;-58
2022/04/17 09:47:40;;;;;;;12.23;4.93;;;;;;;;;;5003268;28;20046;-57
2022/04/17 09:50:07;;;;;;;6.35;4.22;;;;;;;;;;5003142;28;20038;-58
2022/04/17 09:52:35;;;;;;;7.57;4.72;;;;;;;;;;5003261;28;20175;-58
2022/04/17 09:55:03;;;;;;;7.32;4.65;;;;;;;;;;5003592;28;20095;-58
2022/04/17 09:57:30;;;;;;;8.57;4.68;;;;;;;;;;5003799;28;20703;-58
2022/04/17 09:59:57;;;;;;;9.07;5.15;;;;;;;;;;5003537;28;20042;-58
2022/04/17 10:02:25;;;;;;;23.83;5.18;;;;;;;;;;5002634;28;20062;-58
2022/04/17 10:04:53;;;;;;;;;;;;;;;;;;5002251;28;20046;-58
2022/04/17 10:07:22;;;;;;;10.55;4.65;;;;;;;;;;5003453;28;19971;-58
2022/04/17 10:09:49;;;;;;;9.98;5.85;;;;;;;;;;5003282;28;20393;-58
2022/04/17 10:12:19;;;;;;;8.77;5.15;;;;;;;;;;5003484;28;20069;-57
2022/04/17 10:14:48;;;;;;;9.25;5.15;;;;;;;;;;5003435;28;20046;-58
2022/04/17 10:17:14;;;;;;;8.10;4.78;;;;;;;;;;5003744;28;20101;-57
2022/04/17 10:19:42;;;;;;;8.05;5.18;;;;;;;;;;5002737;28;20056;-58
2022/04/17 10:22:10;;;;;;;9.57;5.60;;;;;;;;;;5003502;28;20131;-58
2022/04/17 10:24:37;;;;;;;8.60;5.03;;;;;;;;;;4985376;28;20607;-58
2022/04/17 10:27:05;;;;;;;8.77;4.40;;;;;;;;;;5003328;28;20436;-58
2022/04/17 10:29:35;;;;;;;9.98;4.75;;;;;;;;;;4985294;28;20088;-58
2022/04/17 10:32:20;;;;;;;8.13;4.35;;;;;;;;;;5003745;28;20788;-58
2022/04/17 10:34:55;;;;;;;7.93;5.22;;;;;;;;;;5002155;28;20049;-58
2022/04/17 10:37:34;;;;;;;6.65;4.20;;;;;;;;;;5002550;28;20045;-58
2022/04/17 10:40:01;;;;;;;5.63;3.72;;;;;;;;;;5003774;28;20042;-58
2022/04/17 10:42:35;;;;;;;7.40;4.03;;;;;;;;;;5003632;28;20125;-57
2022/04/17 10:45:02;;;;;;;7.35;4.38;;;;;;;;;;5003360;28;20785;-58
2022/04/17 10:47:30;;;;;;;8.55;3.83;;;;;;;;;;5002989;28;20050;-58
2022/04/17 10:49:57;;;;;;;5.93;3.40;;;;;;;;;;5002560;28;20523;-58
2022/04/17 10:52:30;;;;;;;5.53;3.70;;;;;;;;;;5003075;28;20050;-58
2022/04/17 10:54:56;;;;;;;5.90;3.67;;;;;;;;;;5003595;28;20755;-58
2022/04/17 10:57:26;;;;;;;7.82;4.50;;;;;;;;;;5003116;28;20050;-57
2022/04/17 11:00:11;;;;;;;7.32;3.45;;;;;;;;;;5002414;28;20045;-58
2022/04/17 11:02:37;;;;;;;7.63;4.05;;;;;;;;;;5002712;28;20057;-58
2022/04/17 11:05:04;;;;;;;4.97;3.40;;;;;;;;;;5002496;28;20049;-58
2022/04/17 11:07:31;;;;;;;4.90;2.97;;;;;;;;;;5002616;28;20085;-58
2022/04/17 11:10:05;;;;;;;9.10;4.20;;;;;;;;;;5002612;28;20044;-58
2022/04/17 11:12:31;;;;;;;7.43;4.45;;;;;;;;;;5001515;28;20085;-58
2022/04/17 11:15:18;;;;;;;5.43;3.25;;;;;;;;;;5003468;28;20057;-58
2022/04/17 11:17:46;;;;;;;4.72;3.15;;;;;;;;;;5002219;28;20050;-58
2022/04/17 11:20:12;;;;;;;5.95;3.53;;;;;;;;;;5001497;28;20054;-59
2022/04/17 11:22:39;;;;;;;6.63;3.90;;;;;;;;;;5002226;28;20774;-59
2022/04/17 11:25:06;;;;;;;7.55;3.67;;;;;;;;;;5003100;28;20049;-58
2022/04/17 11:27:32;;;;;;;8.52;4.35;;;;;;;;;;5002834;28;20144;-58
2022/04/17 11:29:59;;;;;;;8.45;4.13;;;;;;;;;;5003523;28;20050;-58
2022/04/17 11:32:32;;;;;;;6.03;3.65;;;;;;;;;;5002802;28;20381;-58
2022/04/17 11:35:01;;;;;;;6.30;3.88;;;;;;;;;;5001554;28;20052;-58
2022/04/17 11:37:29;;;;;;;6.57;3.92;;;;;;;;;;5002918;28;20045;-58
2022/04/17 11:39:57;;;;;;;8.43;4.13;;;;;;;;;;4985233;28;20053;-58
2022/04/17 11:42:23;;;;;;;;;;;;;;;;;;5002974;28;20053;-58
2022/04/17 11:44:50;;;;;;;7.03;3.88;;;;;;;;;;5000636;28;20011;-59
2022/04/17 11:47:18;;;;;;;7.40;3.92;;;;;;;;;;5000451;28;20045;-58
2022/04/17 11:49:45;;;;;;;8.90;4.35;;;;;;;;;;4966693;28;20056;-58
2022/04/17 11:52:11;;;;;;;6.25;4.07;;;;;;;;;;5001566;28;20045;-59
2022/04/17 11:54:38;;;;;;;7.95;4.18;;;;;;;;;;5001891;28;20045;-58
2022/04/17 11:57:05;;;;;;;7.43;3.83;;;;;;;;;;5005954;28;20046;-59
2022/04/17 11:59:44;;;;;;;7.38;4.20;;;;;;;;;;5005826;28;20676;-58
2022/04/17 12:02:12;;;;;;;10.27;3.97;;;;;;;;;;5005956;28;20062;-58
2022/04/17 12:04:38;;;;;;;23.23;4.88;;;;;;;;;;5005214;28;20050;-58
2022/04/17 12:07:05;;;;;;;8.75;3.55;;;;;;;;;;5005890;28;20085;-58
2022/04/17 12:09:31;;;;;;;5.15;3.80;;;;;;;;;;5005427;28;20104;-59
2022/04/17 12:11:57;;;;;;;6.50;3.45;;;;;;;;;;5005790;28;20107;-58
2022/04/17 12:14:29;;;;;;;7.70;3.80;;;;;;;;;;5005937;28;20085;-58
2022/04/17 12:16:56;;;;;;;8.38;3.95;;;;;;;;;;4973936;28;20681;-58
2022/04/17 12:19:22;;;;;;;8.32;4.00;;;;;;;;;;4985528;28;20057;-58
2022/04/17 12:21:49;;;;;;;6.80;3.85;;;;;;;;;;4985577;28;20061;-57
2022/04/17 12:24:15;;;;;;;8.07;4.00;;;;;;;;;;4986128;28;20481;-58
2022/04/17 12:26:41;;;;;;;7.03;4.05;;;;;;;;;;4986092;28;20050;-57
2022/04/17 12:29:08;;;;;;;7.65;4.57;;;;;;;;;;4986302;28;20120;-58
2022/04/17 12:31:34;;;;;;;8.88;4.03;;;;;;;;;;4968521;28;20058;-57
2022/04/17 12:34:08;;;;;;;6.80;4.15;;;;;;;;;;4985249;28;20053;-59
2022/04/17 12:36:37;;;;;;;6.70;4.50;;;;;;;;;;4985841;28;20488;-58
2022/04/17 12:39:04;;;;;;;7.07;5.00;;;;;;;;;;4986210;28;20103;-58
2022/04/17 12:41:48;;;;;;;7.80;5.13;;;;;;;;;;5001657;28;20046;-58
2022/04/17 12:44:14;;;;;;;7.65;4.85;;;;;;;;;;5003661;28;20143;-58
2022/04/17 12:46:43;;;;;;;8.13;4.90;;;;;;;;;;5004332;28;20093;-58
2022/04/17 12:49:10;;;;;;;8.38;4.53;;;;;;;;;;5004065;28;20045;-58
2022/04/17 12:51:38;;;;;;;9.98;4.65;;;;;;;;;;5005325;28;20558;-58
2022/04/17 12:54:06;;;;;;;10.20;5.03;;;;;;;;;;5004239;28;20132;-58
2022/04/17 12:56:33;;;;;;;7.97;5.13;;;;;;;;;;5003936;28;20195;-59
2022/04/17 12:59:00;;;;;;;17.92;5.93;;;;;;;;;;4998027;28;20050;-58
2022/04/17 13:01:27;;;;;;;10.27;5.22;;;;;;;;;;5004983;28;20068;-58
2022/04/17 13:04:06;;;;;;;7.88;5.07;;;;;;;;;;5003853;28;20647;-57
2022/04/17 13:06:32;;;;;;;8.05;4.75;;;;;;;;;;5004200;28;20045;-58
2022/04/17 13:09:06;;;;;;;10.27;5.32;;;;;;;;;;5004767;28;20092;-58
2022/04/17 13:11:40;;;;;;;8.05;4.32;;;;;;;;;;5004141;28;20054;-58
2022/04/17 13:14:06;;;;;;;6.80;4.25;;;;;;;;;;5004868;28;20046;-58
2022/04/17 13:16:33;;;;;;;9.30;4.65;;;;;;;;;;5004376;28;20531;-58
2022/04/17 13:18:59;;;;;;;8.00;5.45;;;;;;;;;;5004043;28;20576;-58
2022/04/17 13:21:26;;;;;;;8.68;5.07;;;;;;;;;;5004797;28;20518;-58
2022/04/17 13:23:52;;;;;;;8.57;5.43;;;;;;;;;;5003229;28;20045;-58
2022/04/17 13:26:20;;;;;;;7.38;5.00;;;;;;;;;;5007184;28;20084;-57
2022/04/17 13:28:46;;;;;;;9.15;4.65;;;;;;;;;;5006826;28;20048;-58
2022/04/17 13:31:12;;;;;;;8.70;4.53;;;;;;;;;;5006918;28;20046;-58
2022/04/17 13:33:38;;;;;;;9.77;5.72;;;;;;;;;;5005368;28;20042;-58
2022/04/17 13:36:05;;;;;;;9.63;5.28;;;;;;;;;;5006901;28;20046;-58
2022/04/17 13:38:31;;;;;;;8.48;5.35;;;;;;;;;;5006441;28;20170;-58
2022/04/17 13:40:57;;;;;;;9.80;5.50;;;;;;;;;;5006868;28;20095;-58
2022/04/17 13:43:24;;;;;;;9.27;5.88;;;;;;;;;;4989270;28;20045;-58
2022/04/17 13:45:50;;;;;;;6.90;5.05;;;;;;;;;;5006478;28;20566;-58
2022/04/17 13:48:16;;;;;;;8.77;5.65;;;;;;;;;;5005297;28;20135;-58
2022/04/17 13:50:42;;;;;;;7.80;5.10;;;;;;;;;;5006191;28;20492;-58
2022/04/17 13:53:09;;;;;;;7.97;4.75;;;;;;;;;;5006135;28;20547;-58
2022/04/17 13:55:36;;;;;;;7.32;4.18;;;;;;;;;;5006085;28;20687;-58
2022/04/17 13:58:02;;;;;;;6.68;4.55;;;;;;;;;;5006474;28;20045;-58
2022/04/17 14:00:28;;;;;;;8.20;5.03;;;;;;;;;;5006427;28;20064;-58
2022/04/17 14:02:54;;;;;;;8.90;5.03;;;;;;;;;;5004945;28;20547;-58
2022/04/17 14:05:21;;;;;;;9.18;4.88;;;;;;;;;;5006095;28;20049;-58
2022/04/17 14:07:48;;;;;;;17.02;4.75;;;;;;;;;;5005670;28;20108;-58
2022/04/17 14:10:14;;;;;;;9.85;4.70;;;;;;;;;;5006480;28;20042;-58
2022/04/17 14:12:40;;;;;;;9.23;4.30;;;;;;;;;;5006002;28;20559;-58
2022/04/17 14:15:07;;;;;;;7.50;4.47;;;;;;;;;;5005575;28;20045;-58
2022/04/17 14:17:33;;;;;;;7.57;4.45;;;;;;;;;;5004599;28;20041;-59
2022/04/17 14:20:00;;;;;;;8.27;3.95;;;;;;;;;;5006116;28;20048;-58
2022/04/17 14:22:26;;;;;;;6.93;4.60;;;;;;;;;;5005950;28;20045;-58
2022/04/17 14:24:52;;;;;;;9.15;4.90;;;;;;;;;;5005782;28;20088;-58
2022/04/17 14:27:19;;;;;;;8.60;5.00;;;;;;;;;;5006118;28;20126;-58
2022/04/17 14:29:46;;;;;;;8.95;5.10;;;;;;;;;;5004995;28;20048;-58
2022/04/17 14:32:12;;;;;;;6.50;4.32;;;;;;;;;;5005795;28;20558;-58
2022/04/17 14:34:38;;;;;;;9.70;4.85;;;;;;;;;;5004702;28;20099;-58
2022/04/17 14:37:05;;;;;;;8.20;5.22;;;;;;;;;;5005632;28;20050;-58
2022/04/17 14:39:31;;;;;;;7.47;4.88;;;;;;;;;;5004772;28;20128;-59
2022/04/17 14:41:58;;;;;;;7.53;5.18;;;;;;;;;;5005681;28;20495;-58
2022/04/17 14:44:24;;;;;;;10.18;5.40;;;;;;;;;;5005524;28;20076;-58
2022/04/17 14:46:50;;;;;;;7.45;4.65;;;;;;;;;;5005688;28;20058;-58
2022/04/17 14:49:16;;;;;;;7.78;4.18;;;;;;;;;;5004766;28;20129;-58
2022/04/17 14:51:43;;;;;;;9.57;4.70;;;;;;;;;;5005121;28;20052;-58
2022/04/17 14:54:10;;;;;;;7.32;4.68;;;;;;;;;;5005342;28;20046;-58
2022/04/17 14:56:38;;;;;;;8.00;4.47;;;;;;;;;;5004582;28;20054;-58